Time;durP1;ratioP1;P1;durP2;ratioP2;P2;SDS_P1;SDS_P2;PMS_P1;PMS_P2;Temp;Humidity;BMP_temperature;BMP_pressure;BME280_temperature;BME280_humidity;BME280_pressure;Samples;Min_cycle;Max_cycle;Signal;HPM_P1;HPM_P2
2023/09/23 00:00:40;;;;;;;4.10;1.10;;;14.40;30.20;;;;;;5006868;28;20537;-67
2023/09/23 00:03:08;;;;;;;3.83;1.00;;;14.40;30.20;;;;;;5009451;28;20562;-66
2023/09/23 00:05:39;;;;;;;3.20;0.70;;;14.40;30.40;;;;;;5008825;28;20861;-67
2023/09/23 00:08:07;;;;;;;4.47;0.97;;;14.30;30.40;;;;;;5010347;28;20475;-67
2023/09/23 00:10:34;;;;;;;4.90;1.07;;;14.30;30.50;;;;;;5009790;28;20522;-67
2023/09/23 00:13:01;;;;;;;3.50;0.80;;;14.20;30.70;;;;;;5007893;28;20460;-67
2023/09/23 00:15:28;;;;;;;3.40;0.70;;;14.20;30.60;;;;;;5010345;28;20487;-66
2023/09/23 00:17:55;;;;;;;3.57;1.10;;;14.20;30.60;;;;;;5005298;28;20475;-67
2023/09/23 00:20:22;;;;;;;4.67;0.80;;;14.20;30.70;;;;;;5009189;28;20476;-67
2023/09/23 00:22:53;;;;;;;6.23;1.00;;;14.20;30.70;;;;;;5010212;28;20867;-67
2023/09/23 00:25:20;;;;;;;3.30;0.90;;;14.10;31.00;;;;;;5009614;28;20489;-67
2023/09/23 00:27:48;;;;;;;5.90;1.20;;;14.10;31.00;;;;;;5007805;28;20503;-67
2023/09/23 00:30:17;;;;;;;4.27;0.80;;;14.10;31.10;;;;;;5008448;28;20551;-67
2023/09/23 00:32:44;;;;;;;3.57;0.90;;;14.00;31.10;;;;;;5009449;28;20537;-67
2023/09/23 00:35:12;;;;;;;3.83;0.70;;;14.00;31.20;;;;;;5009949;28;20490;-67
2023/09/23 00:37:40;;;;;;;4.37;1.00;;;14.00;31.20;;;;;;5004807;28;20486;-68
2023/09/23 00:40:17;;;;;;;3.10;0.80;;;13.90;31.30;;;;;;5010195;28;20470;-67
2023/09/23 00:42:44;;;;;;;4.97;1.20;;;13.90;31.50;;;;;;5011721;28;20483;-67
2023/09/23 00:45:15;;;;;;;4.30;1.27;;;13.90;31.60;;;;;;5009807;28;20594;-66
2023/09/23 00:47:42;;;;;;;4.13;1.30;;;13.90;31.80;;;;;;5008368;28;20891;-67
2023/09/23 00:50:18;;;;;;;5.27;1.30;;;13.90;32.60;;;;;;5008977;28;20464;-67
2023/09/23 00:52:48;;;;;;;4.00;1.40;;;13.90;32.00;;;;;;5007391;28;20467;-67
2023/09/23 00:55:17;;;;;;;11.60;1.80;;;13.90;32.00;;;;;;5009172;28;20513;-67
2023/09/23 00:57:46;;;;;;;4.83;1.47;;;13.90;32.10;;;;;;5007718;28;20499;-67
2023/09/23 01:00:13;;;;;;;5.90;1.77;;;13.90;32.10;;;;;;5004643;28;20464;-66
2023/09/23 01:02:40;;;;;;;4.43;1.37;;;13.90;32.40;;;;;;5006707;28;21334;-66
2023/09/23 01:05:08;;;;;;;5.73;1.57;;;13.90;32.40;;;;;;5009020;28;20483;-66
2023/09/23 01:07:35;;;;;;;4.13;1.50;;;13.90;32.50;;;;;;5005582;28;20485;-67
2023/09/23 01:10:02;;;;;;;4.33;1.60;;;13.90;32.60;;;;;;5007725;28;20562;-67
2023/09/23 01:12:30;;;;;;;5.00;1.90;;;13.90;32.50;;;;;;5009839;28;20538;-66
2023/09/23 01:15:04;;;;;;;4.60;2.00;;;13.90;32.60;;;;;;5004359;28;20523;-66
2023/09/23 01:17:31;;;;;;;5.40;2.53;;;13.90;33.30;;;;;;5007458;28;20547;-67
2023/09/23 01:19:57;;;;;;;5.00;1.80;;;13.90;32.80;;;;;;5008697;28;20470;-67
2023/09/23 01:22:25;;;;;;;6.43;2.10;;;13.90;32.80;;;;;;5008560;28;20480;-67
2023/09/23 01:24:52;;;;;;;4.70;1.70;;;13.90;33.00;;;;;;5004330;28;20499;-67
2023/09/23 01:27:19;;;;;;;4.43;2.30;;;13.90;32.90;;;;;;5007612;28;20510;-67
2023/09/23 01:29:52;;;;;;;4.93;2.27;;;13.80;32.90;;;;;;5008343;28;20506;-67
2023/09/23 01:32:31;;;;;;;6.60;2.70;;;13.90;32.90;;;;;;5006037;28;20829;-67
2023/09/23 01:34:57;;;;;;;5.97;2.53;;;13.80;33.10;;;;;;5006248;28;20494;-67
2023/09/23 01:37:25;;;;;;;5.33;1.90;;;13.80;33.00;;;;;;5007860;28;20460;-67
2023/09/23 01:39:52;;;;;;;5.60;2.30;;;13.80;33.10;;;;;;5007385;28;20468;-67
2023/09/23 01:42:19;;;;;;;5.10;1.80;;;13.80;33.00;;;;;;5006673;28;20484;-67
2023/09/23 01:44:46;;;;;;;4.10;1.70;;;13.90;33.10;;;;;;5008255;28;20498;-67
2023/09/23 01:47:16;;;;;;;4.77;1.77;;;13.90;32.80;;;;;;5005900;28;20840;-67
2023/09/23 01:49:43;;;;;;;6.73;2.10;;;13.90;32.80;;;;;;5007161;28;20467;-67
2023/09/23 01:52:10;;;;;;;4.20;1.70;;;13.90;32.80;;;;;;5012267;28;20460;-67
2023/09/23 01:54:38;;;;;;;7.03;2.30;;;13.80;32.70;;;;;;5024078;28;20491;-66
2023/09/23 01:57:04;;;;;;;9.83;2.13;;;13.80;32.70;;;;;;5014670;28;20471;-68
2023/09/23 01:59:32;;;;;;;5.03;2.23;;;13.80;32.80;;;;;;5007975;28;23360;-67
2023/09/23 02:01:59;;;;;;;5.63;2.60;;;13.80;32.80;;;;;;5005112;28;20479;-68
2023/09/23 02:04:26;;;;;;;4.30;2.00;;;13.80;32.80;;;;;;5005210;28;21112;-67
2023/09/23 02:06:52;;;;;;;11.60;3.17;;;13.90;32.90;;;;;;5005346;28;20459;-67
2023/09/23 02:09:19;;;;;;;5.40;2.20;;;13.80;32.70;;;;;;5007875;28;20467;-67
2023/09/23 02:11:48;;;;;;;7.80;2.67;;;13.80;32.80;;;;;;5012026;28;20455;-66
2023/09/23 02:14:14;;;;;;;5.50;2.87;;;13.80;32.80;;;;;;5005194;28;20508;-68
2023/09/23 02:16:42;;;;;;;10.10;2.50;;;13.80;32.80;;;;;;5008313;28;20474;-67
2023/09/23 02:19:08;;;;;;;5.53;3.23;;;13.80;32.90;;;;;;5007438;28;20805;-67
2023/09/23 02:21:35;;;;;;;4.97;2.93;;;13.80;32.80;;;;;;5008119;28;20483;-67
2023/09/23 02:24:02;;;;;;;4.97;2.43;;;13.80;32.80;;;;;;5005325;28;20495;-67
2023/09/23 02:26:29;;;;;;;6.50;2.30;;;13.90;32.70;;;;;;5008359;28;20464;-67
2023/09/23 02:28:57;;;;;;;5.50;2.47;;;13.90;32.50;;;;;;5008673;28;20472;-67
2023/09/23 02:31:24;;;;;;;4.50;2.00;;;13.90;32.20;;;;;;5007735;28;20484;-67
2023/09/23 02:33:51;;;;;;;6.57;2.43;;;13.80;32.00;;;;;;5006543;28;20490;-67
2023/09/23 02:36:17;;;;;;;6.03;2.33;;;13.80;32.00;;;;;;5006930;28;20463;-67
2023/09/23 02:38:44;;;;;;;6.00;1.90;;;13.80;32.00;;;;;;5006178;28;20467;-67
2023/09/23 02:41:11;;;;;;;6.10;2.30;;;13.80;31.90;;;;;;5006952;28;20468;-67
2023/09/23 02:43:37;;;;;;;5.70;2.20;;;13.80;32.10;;;;;;5006761;28;20488;-67
2023/09/23 02:46:06;;;;;;;4.87;2.60;;;13.80;32.10;;;;;;5008614;28;20499;-68
2023/09/23 02:48:34;;;;;;;6.93;3.90;;;13.70;32.20;;;;;;5006989;28;20491;-67
2023/09/23 02:51:00;;;;;;;9.37;3.47;;;13.80;32.20;;;;;;5007026;28;20918;-67
2023/09/23 02:53:29;;;;;;;6.30;3.20;;;13.70;32.40;;;;;;5005951;28;20626;-66
2023/09/23 02:56:04;;;;;;;7.50;3.37;;;13.70;32.50;;;;;;5003466;28;20526;-66
2023/09/23 02:58:31;;;;;;;7.37;3.43;;;13.70;32.80;;;;;;5004200;28;21040;-67
2023/09/23 03:00:58;;;;;;;5.43;2.90;;;13.70;32.70;;;;;;5006210;28;20482;-67
2023/09/23 03:03:27;;;;;;;6.17;3.10;;;13.70;32.80;;;;;;5003884;28;21265;-67
2023/09/23 03:05:57;;;;;;;7.10;2.70;;;13.70;32.70;;;;;;5007151;28;20472;-67
2023/09/23 03:08:24;;;;;;;7.77;3.17;;;13.70;32.60;;;;;;5004269;28;20472;-67
2023/09/23 03:10:52;;;;;;;5.43;2.70;;;13.80;32.50;;;;;;5007673;28;20464;-67
2023/09/23 03:13:18;;;;;;;6.03;2.40;;;13.70;32.30;;;;;;5004538;28;20806;-67
2023/09/23 03:15:50;;;;;;;7.10;2.87;;;13.70;32.10;;;;;;5004793;28;20839;-67
2023/09/23 03:18:27;;;;;;;4.40;2.13;;;13.70;32.10;;;;;;5006595;28;20471;-66
2023/09/23 03:20:55;;;;;;;7.57;2.43;;;13.70;31.80;;;;;;5005709;28;20558;-67
2023/09/23 03:23:23;;;;;;;6.97;2.57;;;13.70;31.70;;;;;;5001377;28;20471;-67
2023/09/23 03:25:51;;;;;;;5.20;2.20;;;13.70;31.60;;;;;;5006925;28;20840;-67
2023/09/23 03:28:18;;;;;;;4.70;2.27;;;13.70;31.80;;;;;;5007179;28;20483;-66
2023/09/23 03:30:47;;;;;;;9.23;3.00;;;13.70;31.60;;;;;;5005281;28;20463;-67
2023/09/23 03:33:14;;;;;;;5.77;2.53;;;13.60;31.40;;;;;;5002729;28;20468;-67
2023/09/23 03:35:41;;;;;;;6.57;2.53;;;13.60;31.50;;;;;;5004555;28;20538;-67
2023/09/23 03:38:10;;;;;;;4.60;1.93;;;13.60;31.50;;;;;;5007037;28;20464;-67
2023/09/23 03:40:38;;;;;;;5.53;1.90;;;13.60;31.50;;;;;;5006590;28;20547;-68
2023/09/23 03:43:05;;;;;;;4.23;1.70;;;13.60;31.50;;;;;;5005126;28;20909;-67
2023/09/23 03:45:33;;;;;;;4.20;1.40;;;13.60;31.30;;;;;;5003869;28;20983;-67
2023/09/23 03:48:00;;;;;;;4.00;1.53;;;13.60;31.10;;;;;;4995896;28;20460;-68
2023/09/23 03:50:27;;;;;;;4.00;1.33;;;13.60;30.90;;;;;;5005126;28;20463;-67
2023/09/23 03:52:54;;;;;;;4.77;1.30;;;13.50;30.60;;;;;;5002625;28;20984;-67
2023/09/23 03:55:22;;;;;;;4.30;1.40;;;13.50;30.40;;;;;;5003187;28;20487;-67
2023/09/23 03:57:49;;;;;;;3.93;1.20;;;13.50;30.30;;;;;;5006548;28;20546;-67
2023/09/23 04:00:16;;;;;;;4.67;1.20;;;13.40;30.10;;;;;;5003976;28;20483;-67
2023/09/23 04:02:47;;;;;;;5.63;2.20;;;13.40;30.10;;;;;;5008170;28;20707;-67
2023/09/23 04:05:14;;;;;;;5.23;1.80;;;13.40;30.00;;;;;;4998486;28;20506;-67
2023/09/23 04:07:41;;;;;;;4.90;1.57;;;13.30;30.10;;;;;;5003997;28;20823;-67
2023/09/23 04:10:09;;;;;;;5.23;1.50;;;13.30;30.10;;;;;;5006132;28;20464;-67
2023/09/23 04:12:37;;;;;;;3.50;1.10;;;13.20;30.10;;;;;;5003845;28;20996;-66
2023/09/23 04:15:07;;;;;;;4.00;1.40;;;13.20;30.10;;;;;;5006173;28;21032;-66
2023/09/23 04:17:34;;;;;;;4.60;1.47;;;13.10;30.20;;;;;;4986807;28;20507;-67
2023/09/23 04:20:09;;;;;;;6.17;1.60;;;13.10;30.20;;;;;;5006561;28;21123;-66
2023/09/23 04:22:37;;;;;;;5.60;1.53;;;13.10;30.20;;;;;;5003595;28;20494;-66
2023/09/23 04:25:05;;;;;;;5.13;2.10;;;13.00;30.20;;;;;;5004099;28;20479;-66
2023/09/23 04:27:32;;;;;;;3.63;1.27;;;12.90;30.30;;;;;;5004547;28;20471;-66
2023/09/23 04:30:01;;;;;;;6.10;1.97;;;12.90;30.40;;;;;;5006762;28;20464;-66
2023/09/23 04:32:28;;;;;;;5.10;1.70;;;12.90;30.60;;;;;;5004705;28;20573;-67
2023/09/23 04:34:55;;;;;;;7.30;2.13;;;12.80;30.50;;;;;;5006116;28;20585;-67
2023/09/23 04:37:23;;;;;;;5.10;1.90;;;12.80;30.50;;;;;;5004225;28;20459;-67
2023/09/23 04:39:50;;;;;;;5.73;1.80;;;12.70;30.50;;;;;;5006811;28;20459;-67
2023/09/23 04:42:17;;;;;;;3.70;1.40;;;12.70;30.70;;;;;;5005203;28;21002;-67
2023/09/23 04:44:44;;;;;;;4.30;1.30;;;12.70;30.60;;;;;;5005404;28;20487;-67
2023/09/23 04:47:12;;;;;;;4.17;1.37;;;12.70;30.50;;;;;;5010887;28;20471;-67
2023/09/23 04:49:40;;;;;;;4.33;1.20;;;12.70;30.50;;;;;;5008369;28;20522;-67
2023/09/23 04:52:07;;;;;;;3.80;1.30;;;12.70;30.20;;;;;;5006906;28;20482;-67
2023/09/23 04:54:33;;;;;;;4.00;1.50;;;12.70;30.30;;;;;;5006652;28;20576;-67
2023/09/23 04:57:02;;;;;;;3.83;1.47;;;12.70;30.20;;;;;;5007905;28;20463;-66
2023/09/23 05:02:05;;;;;;;6.60;1.57;;;12.70;30.30;;;;;;5002482;28;20502;-65
2023/09/23 05:04:33;;;;;;;4.60;1.70;;;12.70;30.70;;;;;;5008184;28;20492;-66
2023/09/23 05:07:00;;;;;;;11.27;1.80;;;12.70;30.00;;;;;;5004134;28;20475;-65
2023/09/23 05:09:27;;;;;;;4.03;1.67;;;12.70;30.00;;;;;;5008974;28;20582;-65
2023/09/23 05:11:55;;;;;;;3.90;1.40;;;12.70;30.10;;;;;;5006347;28;20498;-67
2023/09/23 05:14:21;;;;;;;5.13;1.37;;;12.70;30.10;;;;;;5004855;28;21038;-65
2023/09/23 05:16:50;;;;;;;3.83;1.23;;;12.60;30.20;;;;;;5009285;28;20470;-68
2023/09/23 05:19:19;;;;;;;4.53;1.30;;;12.60;30.40;;;;;;5007402;28;20468;-68
2023/09/23 05:21:47;;;;;;;3.50;1.30;;;12.60;30.50;;;;;;5007601;28;20474;-68
2023/09/23 05:24:13;;;;;;;3.60;1.27;;;12.60;30.60;;;;;;5002897;28;20483;-68
2023/09/23 05:26:40;;;;;;;3.57;1.17;;;12.60;30.50;;;;;;5010654;28;20483;-68
2023/09/23 05:29:08;;;;;;;5.27;1.67;;;12.60;30.50;;;;;;5010317;28;20821;-69
2023/09/23 05:31:36;;;;;;;4.03;1.27;;;12.60;30.30;;;;;;5004940;28;20476;-69
2023/09/23 05:34:03;;;;;;;4.83;1.53;;;12.60;30.30;;;;;;5006480;28;20559;-68
2023/09/23 05:36:30;;;;;;;7.13;1.97;;;12.70;30.20;;;;;;5003011;28;20521;-68
2023/09/23 05:38:58;;;;;;;4.83;1.10;;;12.70;30.30;;;;;;5008674;28;20562;-68
2023/09/23 05:41:25;;;;;;;3.77;1.13;;;12.70;30.20;;;;;;5008088;28;20542;-69
2023/09/23 05:43:53;;;;;;;3.43;1.10;;;12.80;30.00;;;;;;5008799;28;20494;-69
2023/09/23 05:46:20;;;;;;;3.30;0.90;;;12.80;29.80;;;;;;5004976;28;20472;-69
2023/09/23 05:48:48;;;;;;;3.27;0.97;;;12.90;29.60;;;;;;5005249;28;20464;-69
2023/09/23 05:51:15;;;;;;;5.33;1.23;;;13.10;29.30;;;;;;5004085;28;20472;-70
2023/09/23 05:53:42;;;;;;;3.60;1.03;;;13.30;28.90;;;;;;5007942;28;20496;-69
2023/09/23 05:56:10;;;;;;;3.97;1.13;;;13.40;28.20;;;;;;5009599;28;20467;-70
2023/09/23 05:58:37;;;;;;;3.50;1.10;;;13.50;28.10;;;;;;5007918;28;20468;-68
2023/09/23 06:01:04;;;;;;;3.80;0.97;;;13.60;28.00;;;;;;5006148;28;20471;-69
2023/09/23 06:03:31;;;;;;;3.70;1.43;;;13.80;27.80;;;;;;5007038;28;20895;-66
2023/09/23 06:05:57;;;;;;;3.53;1.00;;;14.00;27.10;;;;;;5007324;28;20466;-69
2023/09/23 06:08:24;;;;;;;4.23;1.20;;;14.10;26.20;;;;;;5009184;28;20475;-69
2023/09/23 06:10:52;;;;;;;3.33;0.80;;;14.20;25.90;;;;;;5008914;28;20468;-68
2023/09/23 06:13:20;;;;;;;3.77;1.03;;;14.30;25.60;;;;;;5012312;28;20498;-70
2023/09/23 06:15:46;;;;;;;3.77;1.20;;;14.30;25.10;;;;;;5004527;28;20467;-70
2023/09/23 06:18:13;;;;;;;3.37;0.70;;;14.40;24.90;;;;;;5010757;28;20459;-69
2023/09/23 06:20:40;;;;;;;3.30;0.80;;;14.40;24.60;;;;;;5005702;28;22345;-69
2023/09/23 06:23:07;;;;;;;3.27;1.00;;;14.50;24.30;;;;;;5008200;28;20527;-69
2023/09/23 06:25:33;;;;;;;4.13;1.27;;;14.60;23.90;;;;;;5009540;28;20472;-69
2023/09/23 06:28:00;;;;;;;4.07;0.90;;;14.60;23.10;;;;;;5007645;28;20505;-70
2023/09/23 06:30:29;;;;;;;4.47;0.83;;;14.70;22.80;;;;;;5006508;28;20479;-69
2023/09/23 06:32:55;;;;;;;3.30;0.93;;;14.80;22.50;;;;;;4998716;28;20472;-69
2023/09/23 06:35:22;;;;;;;3.67;0.90;;;14.90;21.80;;;;;;5002226;28;21220;-69
2023/09/23 06:37:49;;;;;;;6.77;0.90;;;14.90;21.50;;;;;;5005256;28;20508;-69
2023/09/23 06:40:16;;;;;;;3.50;0.97;;;15.00;21.40;;;;;;5006146;28;20471;-69
2023/09/23 06:42:46;;;;;;;5.80;0.93;;;15.00;21.30;;;;;;5001740;28;20463;-69
2023/09/23 06:45:13;;;;;;;3.67;0.90;;;15.10;20.90;;;;;;5003564;28;20491;-69
2023/09/23 06:47:42;;;;;;;3.93;1.00;;;15.10;20.50;;;;;;5003047;28;21021;-69
2023/09/23 06:50:09;;;;;;;3.60;0.90;;;15.20;20.30;;;;;;5006506;28;20487;-69
2023/09/23 06:52:35;;;;;;;4.03;0.87;;;15.30;20.00;;;;;;5007328;28;20890;-70
2023/09/23 06:55:02;;;;;;;3.30;0.73;;;15.40;19.70;;;;;;5006319;28;20502;-69
2023/09/23 06:57:29;;;;;;;3.60;0.97;;;15.50;19.30;;;;;;5002458;28;20463;-69
2023/09/23 06:59:56;;;;;;;4.57;1.50;;;15.60;19.00;;;;;;5003063;28;20506;-69
2023/09/23 07:02:23;;;;;;;5.60;1.07;;;15.60;18.80;;;;;;5000441;28;20475;-69
2023/09/23 07:04:51;;;;;;;3.37;0.97;;;15.60;17.80;;;;;;5005991;28;20859;-69
2023/09/23 07:07:18;;;;;;;3.67;0.97;;;15.70;17.80;;;;;;5003641;28;20475;-69
2023/09/23 07:09:44;;;;;;;4.43;1.23;;;15.70;17.70;;;;;;5005165;28;20462;-70
2023/09/23 07:12:12;;;;;;;3.10;0.80;;;15.60;17.90;;;;;;5004592;28;20511;-70
2023/09/23 07:14:39;;;;;;;3.90;1.20;;;15.60;18.20;;;;;;5004860;28;20599;-70
2023/09/23 07:17:06;;;;;;;4.07;1.10;;;15.70;17.80;;;;;;5007650;28;20479;-70
2023/09/23 07:19:33;;;;;;;4.40;1.00;;;15.60;18.00;;;;;;5008183;28;20466;-69
2023/09/23 07:22:02;;;;;;;4.90;1.40;;;15.70;17.90;;;;;;5005093;28;21015;-69
2023/09/23 07:24:29;;;;;;;3.70;1.17;;;15.70;17.60;;;;;;5003689;28;20490;-68
2023/09/23 07:26:56;;;;;;;3.23;1.10;;;15.80;17.30;;;;;;5004546;28;20482;-69
2023/09/23 07:29:23;;;;;;;3.73;0.90;;;15.90;17.20;;;;;;5006889;28;20467;-69
2023/09/23 07:31:50;;;;;;;3.50;1.00;;;16.00;16.90;;;;;;5002194;28;20476;-68
2023/09/23 07:34:17;;;;;;;4.07;1.33;;;16.10;16.90;;;;;;5004164;28;20483;-69
2023/09/23 07:36:44;;;;;;;3.80;1.20;;;16.20;16.50;;;;;;5004612;28;20456;-69
2023/09/23 07:39:14;;;;;;;4.77;1.10;;;16.40;16.00;;;;;;5006516;28;20474;-69
2023/09/23 07:41:40;;;;;;;3.93;1.10;;;16.60;15.90;;;;;;4998658;28;21271;-68
2023/09/23 07:44:07;;;;;;;3.50;1.10;;;16.90;15.20;;;;;;5004553;28;20492;-68
2023/09/23 07:46:34;;;;;;;2.90;0.70;;;17.10;13.60;;;;;;5005129;28;20483;-68
2023/09/23 07:49:01;;;;;;;3.30;0.70;;;17.30;13.70;;;;;;5005216;28;20467;-68
2023/09/23 07:51:27;;;;;;;3.60;1.00;;;17.60;13.10;;;;;;5004505;28;20468;-68
2023/09/23 07:53:54;;;;;;;4.10;0.90;;;18.10;12.90;;;;;;5006932;28;20491;-68
2023/09/23 07:56:22;;;;;;;3.40;0.97;;;18.80;11.20;;;;;;5006182;28;20475;-69
2023/09/23 07:58:49;;;;;;;3.77;1.07;;;19.60;10.20;;;;;;5003909;28;20486;-69
2023/09/23 08:01:16;;;;;;;3.67;0.83;;;20.40;8.40;;;;;;5005521;28;20511;-69
2023/09/23 08:03:43;;;;;;;3.63;0.90;;;21.10;6.50;;;;;;5004868;28;21057;-69
2023/09/23 08:06:10;;;;;;;4.67;1.27;;;21.60;4.20;;;;;;5002807;28;20471;-69
2023/09/23 08:08:37;;;;;;;4.50;1.37;;;22.00;2.80;;;;;;5002249;28;20482;-69
2023/09/23 08:11:05;;;;;;;3.50;0.80;;;22.10;2.50;;;;;;5006095;28;20463;-69
2023/09/23 08:13:33;;;;;;;3.70;1.37;;;22.10;1.80;;;;;;5008803;28;20471;-69
2023/09/23 08:16:00;;;;;;;3.63;0.93;;;22.10;2.00;;;;;;5007812;28;20967;-69
2023/09/23 08:18:26;;;;;;;3.50;0.90;;;22.10;2.20;;;;;;5011563;28;20466;-69
2023/09/23 08:20:57;;;;;;;3.60;1.00;;;22.20;2.10;;;;;;5006926;28;20470;-69
2023/09/23 08:23:24;;;;;;;6.57;1.30;;;22.50;1.90;;;;;;5012869;28;20499;-69
2023/09/23 08:25:50;;;;;;;3.67;1.10;;;23.20;1.10;;;;;;5008349;28;20475;-69
2023/09/23 08:28:18;;;;;;;3.43;1.00;;;24.10;1.00;;;;;;5007644;28;20471;-69
2023/09/23 08:30:47;;;;;;;3.87;1.00;;;25.00;1.00;;;;;;5005956;28;20567;-69
2023/09/23 08:33:14;;;;;;;3.80;1.20;;;26.00;1.00;;;;;;5008251;28;21003;-69
2023/09/23 08:35:42;;;;;;;3.73;1.03;;;26.80;1.00;;;;;;5012707;28;20463;-68
2023/09/23 08:38:09;;;;;;;8.03;1.70;;;27.50;1.00;;;;;;5010802;28;20525;-70
2023/09/23 08:40:37;;;;;;;4.40;0.97;;;28.20;1.00;;;;;;5009098;28;20483;-69
2023/09/23 08:43:05;;;;;;;3.30;0.80;;;28.70;1.00;;;;;;5009247;28;20496;-69
2023/09/23 08:45:33;;;;;;;3.70;0.80;;;29.20;1.00;;;;;;5009800;28;20908;-68
2023/09/23 08:48:03;;;;;;;3.27;0.73;;;29.20;1.00;;;;;;5007657;28;20474;-68
2023/09/23 08:50:31;;;;;;;7.33;1.70;;;29.00;1.00;;;;;;4994600;28;20455;-67
2023/09/23 08:52:59;;;;;;;4.73;1.03;;;28.60;1.00;;;;;;5009643;28;20526;-68
2023/09/23 08:55:28;;;;;;;6.47;1.37;;;28.00;1.00;;;;;;5009027;28;20483;-68
2023/09/23 08:57:55;;;;;;;3.40;1.03;;;27.60;1.00;;;;;;5011343;28;20468;-68
2023/09/23 09:00:22;;;;;;;3.47;0.93;;;27.50;1.00;;;;;;5004740;28;20495;-66
2023/09/23 09:02:48;;;;;;;4.27;1.20;;;27.50;1.00;;;;;;5000702;28;20579;-68
2023/09/23 09:05:16;;;;;;;3.43;1.13;;;27.50;1.00;;;;;;4999808;28;20484;-68
2023/09/23 09:07:43;;;;;;;4.03;1.10;;;28.80;1.00;;;;;;5008992;28;20474;-68
2023/09/23 09:10:10;;;;;;;3.20;0.70;;;30.40;1.00;;;;;;5006750;28;20479;-70
2023/09/23 09:12:37;;;;;;;3.03;0.70;;;32.10;1.00;;;;;;5007518;28;20483;-69
2023/09/23 09:15:04;;;;;;;2.93;0.83;;;33.80;1.00;;;;;;5006148;28;20918;-71
2023/09/23 09:17:33;;;;;;;3.10;0.90;;;35.40;1.00;;;;;;5009798;28;20468;-69
2023/09/23 09:20:01;;;;;;;3.60;1.03;;;36.50;1.00;;;;;;5029316;28;20436;-69
2023/09/23 09:22:30;;;;;;;3.30;1.10;;;37.40;1.00;;;;;;5014709;28;20491;-70
2023/09/23 09:24:57;;;;;;;3.77;0.90;;;38.10;1.00;;;;;;5017563;28;20491;-69
2023/09/23 09:27:23;;;;;;;3.67;1.10;;;39.50;1.00;;;;;;5009454;28;20499;-69
2023/09/23 09:29:50;;;;;;;5.27;1.30;;;40.70;1.00;;;;;;5010017;28;20463;-70
2023/09/23 09:32:20;;;;;;;8.23;4.60;;;41.80;1.00;;;;;;5005751;28;20475;-69
2023/09/23 09:34:48;;;;;;;4.00;1.20;;;42.90;1.00;;;;;;5013239;28;20479;-69
2023/09/23 09:37:15;;;;;;;3.30;0.90;;;43.70;1.00;;;;;;5006626;28;20476;-70
2023/09/23 09:39:51;;;;;;;4.23;1.33;;;43.00;1.00;;;;;;5004740;28;20479;-70
2023/09/23 09:42:24;;;;;;;2.90;0.83;;;42.90;1.00;;;;;;5005678;28;20467;-71
2023/09/23 09:44:54;;;;;;;2.97;0.80;;;43.70;1.00;;;;;;5008053;28;20494;-70
2023/09/23 09:47:21;;;;;;;3.83;0.80;;;44.60;1.00;;;;;;5007180;28;20564;-70
2023/09/23 09:49:50;;;;;;;4.37;1.20;;;45.60;1.00;;;;;;5008894;28;21203;-70
2023/09/23 09:52:18;;;;;;;3.00;0.97;;;46.30;1.00;;;;;;5012965;28;20776;-70
2023/09/23 09:54:47;;;;;;;4.37;1.13;;;44.90;1.00;;;;;;5005596;28;20486;-70
2023/09/23 09:57:13;;;;;;;6.53;1.00;;;42.80;1.00;;;;;;5010128;28;20475;-70
2023/09/23 09:59:43;;;;;;;3.10;0.83;;;40.70;1.00;;;;;;5014998;28;20506;-70
2023/09/23 10:02:10;;;;;;;4.13;1.00;;;39.00;1.00;;;;;;5012796;28;20491;-69
2023/09/23 10:04:37;;;;;;;8.17;2.97;;;38.10;1.00;;;;;;5025962;28;20499;-69
2023/09/23 10:07:07;;;;;;;3.60;0.83;;;37.30;1.00;;;;;;5019833;28;20472;-69
2023/09/23 10:09:38;;;;;;;3.53;1.00;;;38.40;1.00;;;;;;5010479;28;20522;-70
2023/09/23 10:12:08;;;;;;;4.60;0.83;;;39.10;1.00;;;;;;5015544;28;20467;-70
2023/09/23 10:14:34;;;;;;;5.20;2.20;;;39.10;1.00;;;;;;5010031;28;20487;-70
2023/09/23 10:17:04;;;;;;;5.43;1.47;;;38.10;1.00;;;;;;5009488;28;20460;-70
2023/09/23 10:19:32;;;;;;;3.57;1.20;;;38.30;1.00;;;;;;5009914;28;20456;-70
2023/09/23 10:22:13;;;;;;;5.53;1.70;;;38.80;1.00;;;;;;5010334;28;20459;-69
2023/09/23 10:24:40;;;;;;;3.37;0.90;;;40.30;1.00;;;;;;5001123;28;20511;-69
2023/09/23 10:27:10;;;;;;;3.20;0.90;;;40.60;1.00;;;;;;5012541;28;20466;-69
2023/09/23 10:29:48;;;;;;;3.70;0.90;;;40.00;1.00;;;;;;5004924;28;20856;-69
2023/09/23 10:32:15;;;;;;;3.47;1.00;;;39.50;1.00;;;;;;5005455;28;20484;-69
2023/09/23 10:34:47;;;;;;;3.37;1.03;;;39.20;1.00;;;;;;5001430;28;20479;-69
2023/09/23 10:37:15;;;;;;;3.77;0.70;;;38.40;1.00;;;;;;5004529;28;20522;-69
2023/09/23 10:39:44;;;;;;;3.53;1.00;;;36.70;1.00;;;;;;5002459;28;20490;-69
2023/09/23 10:42:15;;;;;;;3.53;1.00;;;34.90;1.00;;;;;;5005707;28;21050;-70
2023/09/23 10:44:41;;;;;;;3.80;1.03;;;33.50;1.00;;;;;;5001092;28;20495;-69
2023/09/23 10:47:09;;;;;;;4.23;0.90;;;32.30;1.00;;;;;;5000470;28;20548;-69
2023/09/23 10:49:36;;;;;;;2.93;0.80;;;31.40;1.00;;;;;;4999584;28;20466;-69
2023/09/23 10:52:03;;;;;;;4.10;0.97;;;30.70;1.00;;;;;;5009323;28;20467;-68
2023/09/23 10:54:30;;;;;;;3.83;1.10;;;30.30;1.00;;;;;;5006268;28;20914;-68
2023/09/23 10:56:57;;;;;;;3.37;0.80;;;30.50;1.00;;;;;;5003220;28;20527;-68
2023/09/23 10:59:25;;;;;;;4.03;1.13;;;30.20;1.00;;;;;;5002778;28;20468;-68
2023/09/23 11:01:55;;;;;;;3.73;1.10;;;29.70;1.00;;;;;;5006050;28;20483;-68
2023/09/23 11:04:23;;;;;;;4.37;1.10;;;29.00;1.00;;;;;;4999174;28;20494;-68
2023/09/23 11:06:50;;;;;;;5.60;1.10;;;28.50;1.00;;;;;;4995155;28;20472;-68
2023/09/23 11:09:20;;;;;;;3.57;0.90;;;28.00;1.00;;;;;;5009936;28;20463;-68
2023/09/23 11:11:47;;;;;;;3.80;0.93;;;27.50;1.00;;;;;;5005712;28;20464;-68
2023/09/23 11:14:14;;;;;;;4.03;1.00;;;27.00;1.00;;;;;;5009532;28;20483;-68
2023/09/23 11:16:45;;;;;;;3.73;0.80;;;26.60;1.00;;;;;;5007224;28;20463;-68
2023/09/23 11:19:11;;;;;;;5.63;1.20;;;26.10;1.00;;;;;;5011026;28;21016;-68
2023/09/23 11:21:46;;;;;;;4.47;1.03;;;25.70;1.00;;;;;;5007341;28;20459;-67
2023/09/23 11:24:13;;;;;;;3.10;0.80;;;25.20;1.00;;;;;;5002949;28;20486;-68
2023/09/23 11:26:40;;;;;;;6.60;1.10;;;24.80;1.00;;;;;;4999759;28;20849;-68
2023/09/23 11:29:07;;;;;;;3.60;1.10;;;24.50;1.00;;;;;;5005340;28;20460;-68
2023/09/23 11:31:34;;;;;;;3.40;0.80;;;24.20;1.00;;;;;;5002863;28;20483;-67
2023/09/23 11:34:02;;;;;;;4.53;1.00;;;23.90;1.00;;;;;;5005664;28;20486;-67
2023/09/23 11:36:29;;;;;;;4.60;0.80;;;23.50;1.00;;;;;;5004115;28;20561;-67
2023/09/23 11:38:56;;;;;;;5.73;1.20;;;23.40;1.00;;;;;;5003169;28;20468;-67
2023/09/23 11:41:23;;;;;;;3.73;0.90;;;23.20;1.00;;;;;;5007744;28;20563;-68
2023/09/23 11:43:50;;;;;;;3.40;0.87;;;23.20;1.00;;;;;;5007066;28;20495;-68
2023/09/23 11:46:19;;;;;;;3.57;0.80;;;23.10;1.00;;;;;;5011870;28;20534;-68
2023/09/23 11:48:48;;;;;;;4.27;0.90;;;23.00;1.00;;;;;;5012337;28;21068;-68
2023/09/23 11:51:17;;;;;;;5.60;0.93;;;23.00;1.00;;;;;;5014391;28;20499;-68
2023/09/23 11:53:44;;;;;;;3.97;0.93;;;23.00;1.00;;;;;;5014331;28;20487;-68
2023/09/23 11:56:12;;;;;;;3.90;1.00;;;23.10;1.00;;;;;;5014223;28;20811;-68
2023/09/23 11:58:39;;;;;;;3.27;0.80;;;23.10;1.00;;;;;;5012827;28;20517;-68
2023/09/23 12:01:06;;;;;;;4.30;0.90;;;23.20;1.00;;;;;;5007096;28;20464;-68
2023/09/23 12:03:33;;;;;;;4.37;0.97;;;23.40;1.00;;;;;;5014449;28;20533;-68
2023/09/23 12:06:00;;;;;;;3.90;1.00;;;23.50;1.00;;;;;;5011906;28;20480;-68
2023/09/23 12:08:28;;;;;;;5.23;1.17;;;23.70;1.00;;;;;;5018121;28;20463;-68
2023/09/23 12:10:55;;;;;;;4.00;0.90;;;23.90;1.00;;;;;;5014076;28;20471;-68
2023/09/23 12:13:24;;;;;;;4.70;1.10;;;24.00;1.00;;;;;;5013111;28;20457;-69
2023/09/23 12:15:52;;;;;;;4.70;1.00;;;24.00;1.00;;;;;;5008015;28;20468;-68
2023/09/23 12:18:19;;;;;;;3.97;1.00;;;24.00;1.00;;;;;;5017262;28;20471;-68
2023/09/23 12:20:46;;;;;;;3.40;0.93;;;24.00;1.00;;;;;;5014568;28;20456;-68
2023/09/23 12:23:15;;;;;;;4.27;1.10;;;24.00;1.00;;;;;;5005326;28;20952;-69
2023/09/23 12:25:43;;;;;;;3.27;0.70;;;23.80;1.00;;;;;;5014004;28;20486;-67
2023/09/23 12:28:10;;;;;;;5.20;0.90;;;23.50;1.00;;;;;;5010290;28;20483;-69
2023/09/23 12:30:37;;;;;;;3.67;0.60;;;23.30;1.00;;;;;;5010426;28;20854;-68
2023/09/23 12:33:05;;;;;;;3.17;0.90;;;23.10;1.00;;;;;;5011830;28;20475;-68
2023/09/23 12:35:32;;;;;;;3.23;0.70;;;23.00;1.00;;;;;;5007947;28;20474;-68
2023/09/23 12:37:59;;;;;;;3.73;1.00;;;22.90;1.00;;;;;;5012854;28;20609;-68
2023/09/23 12:40:26;;;;;;;3.97;0.80;;;22.80;1.00;;;;;;5012015;28;21117;-68
2023/09/23 12:42:54;;;;;;;4.53;1.03;;;22.90;1.00;;;;;;5016073;28;21133;-69
2023/09/23 12:45:22;;;;;;;3.37;1.13;;;22.90;1.00;;;;;;5009538;28;20999;-69
2023/09/23 12:47:49;;;;;;;4.00;1.07;;;22.80;1.00;;;;;;5006930;28;20574;-69
2023/09/23 12:50:15;;;;;;;3.37;0.80;;;22.80;1.00;;;;;;5017033;28;20467;-69
2023/09/23 12:52:42;;;;;;;4.50;1.03;;;22.70;1.00;;;;;;5011860;28;20478;-68
2023/09/23 12:55:09;;;;;;;12.03;1.57;;;22.60;1.00;;;;;;5009260;28;20534;-68